Terminal Aerodrome Forecast
Issued by NWS

Home | Current Version | Previous Version | Text Only | Print | Product List | Glossary On
Versions: 1 2 3 4 5 6 7 8 9 10 11 12
000
FTUS42 KILM 261120
TAFCRE
TAF
KCRE 261120Z 2612/2712 16007KT P6SM VCSH SCT025 BKN050
      TEMPO 2613/2617 6SM -SHRA BKN025
     FM261700 16010G18KT P6SM FEW050 SCT120
     FM270200 19011KT P6SM SCT100=

USA.gov is the U.S. government's official web portal to all federal, state and local government web resources and services.